createdAt,value
2019-01-31T00:00:47.850Z,96.63
2019-01-31T00:03:56.252Z,96.73
2019-01-31T00:06:37.152Z,97.36
2019-01-31T00:09:44.190Z,96.34
2019-01-31T00:12:51.239Z,96.16
2019-01-31T00:15:59.581Z,95.96
2019-01-31T00:19:06.623Z,96.57
2019-01-31T00:22:13.661Z,96.27
2019-01-31T00:25:22.006Z,96.55
2019-01-31T00:28:30.402Z,96.62
2019-01-31T00:31:37.527Z,96.29
2019-01-31T00:34:44.552Z,96.82
2019-01-31T00:37:51.591Z,97.71
2019-01-31T00:40:58.608Z,97.62
2019-01-31T00:44:05.653Z,97.20
2019-01-31T00:47:14.020Z,96.01
2019-01-31T00:50:22.389Z,95.67
2019-01-31T00:53:30.731Z,96.99
2019-01-31T00:56:39.221Z,96.85
2019-01-31T00:59:46.180Z,96.85
2019-01-31T01:02:54.603Z,96.68
2019-01-31T01:06:02.953Z,96.98
2019-01-31T01:09:11.415Z,96.76
2019-01-31T01:12:19.811Z,95.82
2019-01-31T01:15:28.178Z,96.46
2019-01-31T01:18:35.192Z,96.28
2019-01-31T01:21:43.620Z,96.70
2019-01-31T01:24:50.630Z,96.01
2019-01-31T01:27:59.005Z,94.48
2019-01-31T01:31:07.342Z,94.60
2019-01-31T01:34:15.705Z,94.45
2019-01-31T01:37:24.038Z,94.67
2019-01-31T01:40:31.074Z,94.25
2019-01-31T01:43:39.417Z,95.14
2019-01-31T01:46:47.835Z,96.26
2019-01-31T01:49:54.848Z,95.77
2019-01-31T01:53:01.889Z,96.66
2019-01-31T01:56:08.923Z,96.83
2019-01-31T01:59:15.960Z,96.96
2019-01-31T02:02:24.298Z,97.44
2019-01-31T02:05:32.674Z,98.07
2019-01-31T02:08:41.012Z,98.10
2019-01-31T02:11:49.378Z,99.03
2019-01-31T02:14:57.719Z,100.00
2019-01-31T02:18:06.149Z,100.00
2019-01-31T02:21:14.493Z,100.00
2019-01-31T02:24:21.618Z,100.00
2019-01-31T02:27:28.637Z,100.00
2019-01-31T02:30:37.053Z,100.00
2019-01-31T02:33:44.065Z,100.00
2019-01-31T02:36:52.435Z,100.00
2019-01-31T02:40:00.833Z,100.00
2019-01-31T02:43:09.211Z,100.00
2019-01-31T02:46:16.222Z,100.00
2019-01-31T02:49:24.655Z,100.00
2019-01-31T02:52:31.670Z,100.00
2019-01-31T02:55:40.046Z,100.00
2019-01-31T02:58:48.461Z,100.00
2019-01-31T03:01:56.837Z,100.00
2019-01-31T03:05:05.186Z,100.00
2019-01-31T03:08:13.559Z,100.00
2019-01-31T03:11:21.982Z,100.00
2019-01-31T03:14:30.361Z,100.00
2019-01-31T03:17:38.759Z,100.00
2019-01-31T03:20:47.185Z,100.00
2019-01-31T03:23:55.551Z,100.00
2019-01-31T03:27:02.603Z,100.00
2019-01-31T03:30:09.626Z,100.00
2019-01-31T03:33:18.047Z,100.00
2019-01-31T03:36:26.400Z,100.00
2019-01-31T03:39:33.468Z,100.00
2019-01-31T03:42:40.484Z,100.00
2019-01-31T03:45:47.537Z,100.00
2019-01-31T03:48:54.576Z,100.00
2019-01-31T03:52:01.636Z,100.00
2019-01-31T03:55:09.977Z,100.00
2019-01-31T03:58:17.043Z,100.00
2019-01-31T04:01:25.379Z,100.00
2019-01-31T04:04:33.772Z,100.00
2019-01-31T04:07:21.434Z,100.00
2019-01-31T04:09:49.886Z,100.00
2019-01-31T04:12:18.326Z,100.00
2019-01-31T04:14:46.757Z,100.00
2019-01-31T04:17:15.216Z,100.00
2019-01-31T04:19:43.642Z,100.00
2019-01-31T04:22:12.093Z,100.00
2019-01-31T04:24:40.533Z,100.00
2019-01-31T04:27:28.176Z,100.00
2019-01-31T04:29:56.708Z,100.00
2019-01-31T04:32:25.137Z,100.00
2019-01-31T04:34:53.567Z,100.00
2019-01-31T04:37:22.049Z,100.00
2019-01-31T04:39:50.477Z,100.00
2019-01-31T04:45:46.341Z,99.58
2019-01-31T04:48:14.763Z,99.51
2019-01-31T04:51:02.460Z,99.97
2019-01-31T04:53:30.878Z,99.51
2019-01-31T04:55:59.305Z,99.01
2019-01-31T04:58:27.756Z,98.82
2019-01-31T05:01:15.497Z,98.06
2019-01-31T05:04:03.143Z,96.39
2019-01-31T05:06:50.884Z,95.92
2019-01-31T05:09:19.337Z,94.81
2019-01-31T05:11:47.763Z,94.75
2019-01-31T05:14:16.183Z,95.42
2019-01-31T05:16:44.660Z,94.74
2019-01-31T05:19:13.083Z,95.04
2019-01-31T05:22:00.724Z,95.21
2019-01-31T05:24:48.339Z,95.52
2019-01-31T05:27:16.830Z,95.97
2019-01-31T05:29:45.242Z,96.73
2019-01-31T05:32:13.660Z,97.96
2019-01-31T05:37:15.760Z,99.23
2019-01-31T05:39:44.217Z,99.42
2019-01-31T05:42:12.639Z,99.55
2019-01-31T05:44:41.059Z,99.26
2019-01-31T05:47:09.478Z,99.37
2019-01-31T05:49:37.931Z,99.33
2019-01-31T05:52:25.680Z,100.00
2019-01-31T05:55:13.459Z,99.95
2019-01-31T05:57:41.888Z,100.00
2019-01-31T06:05:39.435Z,100.00
2019-01-31T06:08:07.909Z,100.00
2019-01-31T06:10:36.353Z,100.00
2019-01-31T06:13:24.064Z,100.00
2019-01-31T06:15:52.495Z,100.00
2019-01-31T06:18:20.924Z,100.00
2019-01-31T06:20:49.371Z,99.75
2019-01-31T06:23:17.803Z,99.20
2019-01-31T06:25:46.224Z,98.17
2019-01-31T06:31:07.676Z,95.61
2019-01-31T06:36:10.418Z,95.71
2019-01-31T06:38:38.846Z,95.66
2019-01-31T06:43:41.868Z,95.68
2019-01-31T06:46:10.324Z,97.53
2019-01-31T06:48:38.746Z,99.38
2019-01-31T06:51:07.176Z,100.00
2019-01-31T06:53:35.634Z,100.00
2019-01-31T06:59:14.567Z,100.00
2019-01-31T07:01:42.300Z,100.00
2019-01-31T07:04:11.180Z,100.00
2019-01-31T07:06:40.987Z,100.00
2019-01-31T07:09:49.337Z,100.00
2019-01-31T07:12:17.788Z,100.00
2019-01-31T07:14:46.216Z,100.00
2019-01-31T07:17:14.711Z,100.00
2019-01-31T07:19:43.263Z,100.00
2019-01-31T07:24:59.292Z,100.00
2019-01-31T07:27:27.724Z,100.00
2019-01-31T07:29:56.170Z,100.00
2019-01-31T07:32:24.661Z,100.00
2019-01-31T07:34:53.071Z,100.00
2019-01-31T07:37:40.842Z,100.00
2019-01-31T07:40:49.193Z,100.00
2019-01-31T07:43:17.652Z,100.00
2019-01-31T07:46:05.407Z,100.00
2019-01-31T07:51:07.793Z,100.00
2019-01-31T07:56:10.496Z,100.00
2019-01-31T07:58:38.924Z,100.00
2019-01-31T08:01:26.697Z,100.00
2019-01-31T08:04:02.255Z,100.00
2019-01-31T08:06:25.292Z,100.00
2019-01-31T08:09:12.878Z,100.00
2019-01-31T08:11:52.068Z,100.00
2019-01-31T08:14:11.524Z,100.00
2019-01-31T08:16:59.313Z,100.00
2019-01-31T08:19:27.794Z,100.00
2019-01-31T08:21:56.200Z,100.00
2019-01-31T08:24:24.659Z,100.00
2019-01-31T08:26:55.828Z,100.00
2019-01-31T08:29:23.293Z,99.87
2019-01-31T08:31:51.815Z,100.00
2019-01-31T08:34:20.243Z,99.75
2019-01-31T08:36:48.663Z,99.96
2019-01-31T08:39:17.112Z,99.26
2019-01-31T08:41:45.530Z,99.01
2019-01-31T08:44:13.951Z,98.82
2019-01-31T08:46:42.399Z,98.30
2019-01-31T08:49:10.817Z,98.65
2019-01-31T08:51:39.239Z,98.49
2019-01-31T08:54:26.878Z,98.37
2019-01-31T08:56:55.365Z,97.56
2019-01-31T08:59:23.790Z,97.56
2019-01-31T09:02:12.580Z,98.23
2019-01-31T09:05:01.029Z,97.62
2019-01-31T09:07:48.615Z,98.10
2019-01-31T09:10:56.952Z,98.14
2019-01-31T09:14:05.328Z,98.12
2019-01-31T09:16:52.945Z,97.13
2019-01-31T09:19:40.585Z,96.61
2019-01-31T09:22:48.926Z,96.31
2019-01-31T09:25:57.314Z,97.07
2019-01-31T09:29:05.657Z,96.15
2019-01-31T09:32:12.699Z,96.50
2019-01-31T09:35:19.709Z,96.49
2019-01-31T09:38:26.868Z,97.26
2019-01-31T09:41:35.261Z,97.20
2019-01-31T09:44:42.303Z,97.20
2019-01-31T09:47:49.310Z,97.02
2019-01-31T09:50:57.688Z,97.69
2019-01-31T09:54:04.699Z,97.11
2019-01-31T09:57:13.134Z,95.64
2019-01-31T10:00:27.154Z,93.64
2019-01-31T10:03:30.290Z,94.15
2019-01-31T10:06:37.298Z,93.48
2019-01-31T10:09:44.351Z,93.77
2019-01-31T10:12:52.812Z,94.23
2019-01-31T10:15:59.902Z,95.04
2019-01-31T10:19:08.317Z,95.08
2019-01-31T10:22:15.481Z,94.70
2019-01-31T10:25:23.791Z,95.70
2019-01-31T10:28:31.132Z,95.50
2019-01-31T10:31:38.146Z,95.94
2019-01-31T10:34:45.183Z,96.08
2019-01-31T10:37:52.194Z,96.20
2019-01-31T10:40:59.550Z,96.85
2019-01-31T10:44:07.894Z,96.42
2019-01-31T10:47:15.013Z,95.60
2019-01-31T10:50:23.355Z,95.66
2019-01-31T10:53:31.801Z,95.67
2019-01-31T10:56:40.133Z,96.01
2019-01-31T10:59:47.177Z,96.24
2019-01-31T11:02:54.228Z,95.95
2019-01-31T11:06:01.263Z,96.58
2019-01-31T11:09:09.599Z,96.16
2019-01-31T11:12:16.643Z,96.10
2019-01-31T11:15:23.652Z,95.99
2019-01-31T11:18:32.041Z,96.99
2019-01-31T11:21:39.052Z,96.45
2019-01-31T11:24:46.121Z,95.32
2019-01-31T11:27:54.530Z,95.53
2019-01-31T11:31:02.901Z,96.61
2019-01-31T11:34:11.240Z,96.51
2019-01-31T11:37:19.662Z,96.18
2019-01-31T11:40:26.671Z,95.97
2019-01-31T11:43:33.788Z,95.14
2019-01-31T11:46:40.872Z,94.86
2019-01-31T11:49:49.906Z,94.50
2019-01-31T11:52:58.042Z,93.52
2019-01-31T11:56:06.553Z,92.76
2019-01-31T11:59:14.939Z,92.20
2019-01-31T12:04:57.612Z,92.93
2019-01-31T12:07:45.387Z,91.69
2019-01-31T12:10:53.725Z,91.75
2019-01-31T12:16:15.527Z,92.33
2019-01-31T12:18:43.982Z,91.45
2019-01-31T12:21:12.499Z,91.37
2019-01-31T12:29:29.135Z,88.67
2019-01-31T12:31:57.731Z,88.80
2019-01-31T12:34:26.149Z,88.98
2019-01-31T12:36:54.570Z,89.39
2019-01-31T12:40:03.032Z,89.67
2019-01-31T12:42:50.690Z,88.24
2019-01-31T12:45:59.096Z,88.01
2019-01-31T12:48:27.510Z,86.81
2019-01-31T12:50:56.003Z,84.75
2019-01-31T12:53:24.517Z,85.80
2019-01-31T12:55:52.939Z,85.03
2019-01-31T12:58:21.363Z,85.25
2019-01-31T13:04:04.232Z,85.89
2019-01-31T13:06:32.669Z,86.35
2019-01-31T13:09:20.211Z,85.31
2019-01-31T13:12:07.859Z,85.63
2019-01-31T13:14:55.602Z,85.76
2019-01-31T13:20:37.821Z,85.90
2019-01-31T13:23:46.228Z,86.40
2019-01-31T13:26:14.647Z,86.34
2019-01-31T13:28:43.066Z,86.66
2019-01-31T13:31:11.510Z,87.27
2019-01-31T13:33:39.928Z,87.35
2019-01-31T13:44:29.842Z,86.73
2019-01-31T13:46:58.298Z,86.59
2019-01-31T13:49:46.054Z,86.66
2019-01-31T13:52:33.715Z,86.42
2019-01-31T13:55:02.202Z,86.17
2019-01-31T13:57:49.903Z,86.38
2019-01-31T14:00:58.239Z,87.03
2019-01-31T14:03:26.693Z,85.81
2019-01-31T14:05:55.117Z,84.59
2019-01-31T14:08:23.605Z,85.18
2019-01-31T14:13:26.138Z,85.20
2019-01-31T14:16:14.120Z,84.57
2019-01-31T14:18:42.905Z,84.61
2019-01-31T14:21:11.334Z,84.54
2019-01-31T14:23:40.138Z,84.90
2019-01-31T14:26:08.624Z,85.84
2019-01-31T14:28:37.321Z,85.64
2019-01-31T14:31:06.089Z,85.50
2019-01-31T14:33:34.792Z,85.31
2019-01-31T14:36:03.575Z,87.06
2019-01-31T14:38:32.386Z,85.85
2019-01-31T14:41:00.809Z,85.90
2019-01-31T14:43:29.326Z,85.68
2019-01-31T14:45:58.120Z,85.70
2019-01-31T14:48:26.900Z,84.07
2019-01-31T14:50:55.688Z,85.21
2019-01-31T14:53:24.580Z,84.55
2019-01-31T14:55:55.417Z,84.50
2019-01-31T14:58:42.538Z,85.29
2019-01-31T15:01:10.996Z,84.66
2019-01-31T15:03:39.440Z,84.53
2019-01-31T15:08:41.890Z,84.37
2019-01-31T15:13:44.275Z,84.51
2019-01-31T15:16:12.695Z,83.67
2019-01-31T15:18:41.144Z,83.79
2019-01-31T15:21:09.561Z,83.88
2019-01-31T15:23:37.982Z,83.49
2019-01-31T15:26:06.463Z,83.65
2019-01-31T15:28:34.883Z,83.39
2019-01-31T15:31:03.378Z,83.58
2019-01-31T15:36:24.717Z,84.16
2019-01-31T15:39:12.360Z,84.27
2019-01-31T15:42:20.727Z,84.13
2019-01-31T15:47:42.202Z,83.55
2019-01-31T15:50:50.978Z,83.33
2019-01-31T15:53:22.107Z,82.31
2019-01-31T15:55:49.753Z,81.38
2019-01-31T15:58:18.207Z,83.10
2019-01-31T16:01:26.542Z,82.67
2019-01-31T16:06:28.890Z,83.62
2019-01-31T16:09:16.666Z,83.64
2019-01-31T16:14:54.942Z,85.51
2019-01-31T16:17:21.878Z,86.18
2019-01-31T16:19:50.297Z,86.48
2019-01-31T16:22:37.952Z,86.58
2019-01-31T16:25:47.881Z,87.09
2019-01-31T16:28:16.454Z,86.24
2019-01-31T16:34:12.250Z,86.85
2019-01-31T16:37:20.593Z,88.07
2019-01-31T16:42:23.092Z,88.50
2019-01-31T16:44:51.530Z,88.28
2019-01-31T16:47:19.951Z,90.12
2019-01-31T16:50:07.659Z,89.38
2019-01-31T16:52:55.398Z,89.67
2019-01-31T16:56:03.767Z,89.36
2019-01-31T16:58:32.267Z,90.58
2019-01-31T17:01:20.109Z,90.10
2019-01-31T17:03:48.531Z,90.58
2019-01-31T17:06:17.027Z,89.68
2019-01-31T17:08:45.483Z,89.14
2019-01-31T17:11:33.150Z,89.10
2019-01-31T17:16:35.998Z,90.38
2019-01-31T17:21:59.587Z,89.20
2019-01-31T17:24:28.012Z,89.46
2019-01-31T17:26:56.435Z,90.15
2019-01-31T17:29:24.892Z,90.38
2019-01-31T17:31:53.317Z,89.33
2019-01-31T17:40:04.164Z,89.61
2019-01-31T17:42:32.643Z,89.56
2019-01-31T17:45:01.051Z,87.88
2019-01-31T17:47:29.478Z,86.70
2019-01-31T17:52:32.286Z,88.54
2019-01-31T17:55:19.980Z,89.09
2019-01-31T17:58:07.681Z,89.50
2019-01-31T18:06:44.653Z,88.39
2019-01-31T18:11:47.499Z,88.73
2019-01-31T18:14:15.927Z,88.57
2019-01-31T18:19:17.920Z,90.57
2019-01-31T18:21:46.344Z,91.44
2019-01-31T18:24:14.807Z,91.92
2019-01-31T18:26:43.234Z,91.83
2019-01-31T18:29:11.703Z,91.46
2019-01-31T18:31:40.161Z,91.07
2019-01-31T18:34:08.608Z,91.08
2019-01-31T18:36:37.055Z,91.24
2019-01-31T18:39:45.537Z,91.81
2019-01-31T18:42:13.959Z,91.69
2019-01-31T18:44:43.777Z,91.48
2019-01-31T18:47:12.586Z,90.77
2019-01-31T18:49:41.031Z,89.81
2019-01-31T18:58:37.799Z,90.66
2019-01-31T19:01:46.185Z,90.84
2019-01-31T19:04:14.776Z,91.25
2019-01-31T19:06:43.203Z,91.50
2019-01-31T19:12:26.062Z,92.22
2019-01-31T19:15:13.816Z,92.40
2019-01-31T19:18:06.045Z,92.40
2019-01-31T19:21:11.919Z,91.85
2019-01-31T19:26:53.281Z,92.72
2019-01-31T19:29:41.196Z,93.38
2019-01-31T19:32:09.803Z,93.69
2019-01-31T19:34:57.499Z,93.62
2019-01-31T19:37:46.125Z,93.26
2019-01-31T19:40:53.455Z,92.14
2019-01-31T19:43:41.099Z,92.52
2019-01-31T19:46:16.504Z,92.72
2019-01-31T19:49:20.778Z,92.80
2019-01-31T19:52:08.607Z,92.99
2019-01-31T19:54:56.280Z,93.28
2019-01-31T19:59:58.576Z,93.90
2019-01-31T20:02:46.419Z,94.09
2019-01-31T20:05:15.512Z,94.32
2019-01-31T20:11:19.639Z,94.55
2019-01-31T20:14:08.573Z,94.84
2019-01-31T20:16:56.265Z,95.18
2019-01-31T20:26:07.807Z,95.55
2019-01-31T20:28:36.278Z,95.68
2019-01-31T20:31:44.711Z,95.81
2019-01-31T20:34:32.360Z,95.80
2019-01-31T20:37:00.927Z,95.64
2019-01-31T20:39:48.588Z,95.87
2019-01-31T20:42:17.162Z,95.82
2019-01-31T20:44:45.700Z,95.68
2019-01-31T20:47:15.788Z,96.00
2019-01-31T20:52:38.065Z,95.97
2019-01-31T20:55:46.564Z,95.68
2019-01-31T20:58:34.349Z,95.66
2019-01-31T21:01:22.168Z,95.91
2019-01-31T21:04:12.298Z,95.83
2019-01-31T21:09:34.348Z,95.47
2019-01-31T21:12:22.224Z,95.23
2019-01-31T21:15:12.855Z,95.19
2019-01-31T21:17:59.720Z,94.92
2019-01-31T21:21:08.098Z,95.03
2019-01-31T21:26:49.443Z,94.59
2019-01-31T21:29:37.237Z,94.46
2019-01-31T21:32:24.978Z,94.65
2019-01-31T21:34:53.478Z,94.92
2019-01-31T21:37:41.132Z,94.98
2019-01-31T21:40:49.679Z,94.61
2019-01-31T21:43:18.103Z,93.80
2019-01-31T21:46:06.685Z,93.26
2019-01-31T21:48:35.139Z,93.29
2019-01-31T21:51:03.724Z,93.63
2019-01-31T21:53:51.498Z,93.40
2019-01-31T21:56:19.919Z,93.05
2019-01-31T22:02:01.112Z,94.17
2019-01-31T22:04:49.011Z,93.51
2019-01-31T22:07:36.616Z,94.50
2019-01-31T22:10:45.080Z,94.84
2019-01-31T22:13:13.522Z,95.47
2019-01-31T22:21:30.643Z,95.09
2019-01-31T22:23:59.089Z,94.53
2019-01-31T22:26:46.756Z,93.43
2019-01-31T22:29:15.208Z,92.96
2019-01-31T22:31:43.652Z,92.78
2019-01-31T22:34:12.072Z,93.66
2019-01-31T22:36:59.651Z,92.21
2019-01-31T22:39:28.076Z,91.43
2019-01-31T22:41:56.502Z,92.53
2019-01-31T22:44:24.949Z,92.64
2019-01-31T22:47:12.561Z,93.25
2019-01-31T22:52:33.919Z,93.54
2019-01-31T22:55:21.565Z,92.92
2019-01-31T22:57:50.058Z,92.76
2019-01-31T23:00:58.519Z,92.85
2019-01-31T23:03:27.042Z,92.87
2019-01-31T23:05:55.455Z,92.64
2019-01-31T23:08:23.980Z,92.30
2019-01-31T23:10:52.427Z,92.48
2019-01-31T23:13:40.280Z,92.07
2019-01-31T23:21:51.274Z,91.80
2019-01-31T23:26:53.690Z,92.36
2019-01-31T23:29:22.178Z,93.26
2019-01-31T23:32:09.797Z,94.46
2019-01-31T23:37:12.098Z,96.74
2019-01-31T23:39:40.519Z,97.31
2019-01-31T23:42:08.971Z,99.31
2019-01-31T23:44:37.396Z,100.00
2019-01-31T23:47:25.182Z,100.00
2019-01-31T23:49:53.607Z,100.00
2019-01-31T23:52:41.549Z,100.00
2019-01-31T23:55:49.887Z,100.00
2019-01-31T23:58:18.337Z,100.00
